
<gpx xmlns="http://www.topografix.com/GPX/1/1" xmlns:gpxx="http://www.garmin.com/xmlschemas/GpxExtensions/v3" xmlns:wptx1="http://www.garmin.com/xmlschemas/WaypointExtension/v1" xmlns:xsi="http://www.w3.org/2001/XMLSchema-instance" version="1.1" creator="Adze - https://getadze.com/" xsi:schemaLocation="http://www.topografix.com/GPX/1/1 http://www.topografix.com/GPX/1/1/gpx.xsd http://www.garmin.com/xmlschemas/GpxExtensions/v3 http://www8.garmin.com/xmlschemas/GpxExtensionsv3.xsd http://www.garmin.com/xmlschemas/WaypointExtension/v1 http://www8.garmin.com/xmlschemas/WaypointExtensionv1.xsd">
    <metadata>
        <name>Untitled Document</name>
        <link href="http://www.garmin.com"></link>
        <time>2018-03-05T07:13:27.433Z</time>
    </metadata>
    <wpt lon="100.093329" lat="15.466187">
        <ele>28.000000</ele>
        <name>Country Lake Resort</name>
        <sym>Waypoint</sym>
        <type>user</type>
        <extensions>
            <gpxx:WaypointExtension>
                <gpxx:DisplayMode>SymbolAndName</gpxx:DisplayMode>
            </gpxx:WaypointExtension>
            <wptx1:WaypointExtension>
                <wptx1:DisplayMode>SymbolAndName</wptx1:DisplayMode>
            </wptx1:WaypointExtension>
        </extensions>
    </wpt>
    <trk>
        <name>October 2005 - Sunday</name>
        <extensions>
            <gpxx:TrackExtension>
                <gpxx:DisplayColor>DarkGray</gpxx:DisplayColor>
            </gpxx:TrackExtension>
        </extensions>
        <trkseg>
            <trkpt lon="100.094461" lat="15.467184">
                <ele>53.490479</ele>
                <time>2005-10-30T02:49:07Z</time>
            </trkpt>
            <trkpt lon="100.094440" lat="15.467205">
                <ele>50.125977</ele>
                <time>2005-10-30T02:50:02Z</time>
            </trkpt>
            <trkpt lon="100.094419" lat="15.467141">
                <ele>24.170288</ele>
                <time>2005-10-30T03:06:31Z</time>
            </trkpt>
            <trkpt lon="100.094569" lat="15.467355">
                <ele>23.208984</ele>
                <time>2005-10-30T03:06:47Z</time>
            </trkpt>
            <trkpt lon="100.094955" lat="15.466948">
                <ele>21.766968</ele>
                <time>2005-10-30T03:07:03Z</time>
            </trkpt>
            <trkpt lon="100.095448" lat="15.466261">
                <ele>18.883057</ele>
                <time>2005-10-30T03:07:23Z</time>
            </trkpt>
            <trkpt lon="100.095835" lat="15.465789">
                <ele>20.805664</ele>
                <time>2005-10-30T03:07:38Z</time>
            </trkpt>
            <trkpt lon="100.096285" lat="15.465231">
                <ele>23.208984</ele>
                <time>2005-10-30T03:07:56Z</time>
            </trkpt>
            <trkpt lon="100.097015" lat="15.464330">
                <ele>25.612305</ele>
                <time>2005-10-30T03:08:20Z</time>
            </trkpt>
            <trkpt lon="100.097573" lat="15.463707">
                <ele>23.689575</ele>
                <time>2005-10-30T03:08:36Z</time>
            </trkpt>
            <trkpt lon="100.097680" lat="15.463557">
                <ele>23.689575</ele>
                <time>2005-10-30T03:08:40Z</time>
            </trkpt>
            <trkpt lon="100.098345" lat="15.462763">
                <ele>23.689575</ele>
                <time>2005-10-30T03:09:00Z</time>
            </trkpt>
            <trkpt lon="100.099010" lat="15.462012">
                <ele>23.689575</ele>
                <time>2005-10-30T03:09:19Z</time>
            </trkpt>
            <trkpt lon="100.099719" lat="15.461047">
                <ele>25.612305</ele>
                <time>2005-10-30T03:09:43Z</time>
            </trkpt>
            <trkpt lon="100.100234" lat="15.460317">
                <ele>25.612305</ele>
                <time>2005-10-30T03:10:00Z</time>
            </trkpt>
            <trkpt lon="100.100813" lat="15.459974">
                <ele>22.728271</ele>
                <time>2005-10-30T03:10:14Z</time>
            </trkpt>
            <trkpt lon="100.101306" lat="15.460038">
                <ele>19.844360</ele>
                <time>2005-10-30T03:10:27Z</time>
            </trkpt>
            <trkpt lon="100.101564" lat="15.460081">
                <ele>17.441162</ele>
                <time>2005-10-30T03:10:40Z</time>
            </trkpt>
            <trkpt lon="100.102036" lat="15.460145">
                <ele>17.441162</ele>
                <time>2005-10-30T03:10:50Z</time>
            </trkpt>
            <trkpt lon="100.102208" lat="15.460339">
                <ele>16.479736</ele>
                <time>2005-10-30T03:10:55Z</time>
            </trkpt>
            <trkpt lon="100.102401" lat="15.461090">
                <ele>13.595825</ele>
                <time>2005-10-30T03:11:08Z</time>
            </trkpt>
            <trkpt lon="100.102487" lat="15.461218">
                <ele>13.595825</ele>
                <time>2005-10-30T03:11:11Z</time>
            </trkpt>
            <trkpt lon="100.102701" lat="15.461283">
                <ele>14.076416</ele>
                <time>2005-10-30T03:11:15Z</time>
            </trkpt>
            <trkpt lon="100.103002" lat="15.461197">
                <ele>15.518433</ele>
                <time>2005-10-30T03:11:21Z</time>
            </trkpt>
            <trkpt lon="100.103259" lat="15.461304">
                <ele>16.960449</ele>
                <time>2005-10-30T03:11:28Z</time>
            </trkpt>
            <trkpt lon="100.103474" lat="15.461669">
                <ele>16.960449</ele>
                <time>2005-10-30T03:11:37Z</time>
            </trkpt>
            <trkpt lon="100.103796" lat="15.462034">
                <ele>17.441162</ele>
                <time>2005-10-30T03:11:50Z</time>
            </trkpt>
            <trkpt lon="100.103989" lat="15.461862">
                <ele>17.441162</ele>
                <time>2005-10-30T03:11:56Z</time>
            </trkpt>
            <trkpt lon="100.104847" lat="15.461519">
                <ele>17.441162</ele>
                <time>2005-10-30T03:12:14Z</time>
            </trkpt>
            <trkpt lon="100.104911" lat="15.462184">
                <ele>17.921753</ele>
                <time>2005-10-30T03:12:30Z</time>
            </trkpt>
            <trkpt lon="100.105104" lat="15.463171">
                <ele>17.921753</ele>
                <time>2005-10-30T03:12:49Z</time>
            </trkpt>
            <trkpt lon="100.105255" lat="15.464222">
                <ele>19.844360</ele>
                <time>2005-10-30T03:13:08Z</time>
            </trkpt>
            <trkpt lon="100.105448" lat="15.465446">
                <ele>18.883057</ele>
                <time>2005-10-30T03:13:30Z</time>
            </trkpt>
            <trkpt lon="100.105662" lat="15.466647">
                <ele>19.363770</ele>
                <time>2005-10-30T03:13:51Z</time>
            </trkpt>
            <trkpt lon="100.105920" lat="15.467978">
                <ele>16.479736</ele>
                <time>2005-10-30T03:14:14Z</time>
            </trkpt>
            <trkpt lon="100.106285" lat="15.469244">
                <ele>18.883057</ele>
                <time>2005-10-30T03:14:37Z</time>
            </trkpt>
            <trkpt lon="100.106671" lat="15.470574">
                <ele>19.844360</ele>
                <time>2005-10-30T03:15:01Z</time>
            </trkpt>
            <trkpt lon="100.107014" lat="15.471690">
                <ele>19.844360</ele>
                <time>2005-10-30T03:15:21Z</time>
            </trkpt>
            <trkpt lon="100.107422" lat="15.472934">
                <ele>18.402344</ele>
                <time>2005-10-30T03:15:43Z</time>
            </trkpt>
            <trkpt lon="100.107765" lat="15.474136">
                <ele>20.805664</ele>
                <time>2005-10-30T03:16:04Z</time>
            </trkpt>
            <trkpt lon="100.108130" lat="15.475338">
                <ele>20.324951</ele>
                <time>2005-10-30T03:16:26Z</time>
            </trkpt>
            <trkpt lon="100.108559" lat="15.476711">
                <ele>18.883057</ele>
                <time>2005-10-30T03:16:51Z</time>
            </trkpt>
            <trkpt lon="100.108817" lat="15.477548">
                <ele>20.324951</ele>
                <time>2005-10-30T03:17:07Z</time>
            </trkpt>
            <trkpt lon="100.109267" lat="15.478749">
                <ele>22.728271</ele>
                <time>2005-10-30T03:17:30Z</time>
            </trkpt>
            <trkpt lon="100.109611" lat="15.479629">
                <ele>21.766968</ele>
                <time>2005-10-30T03:17:47Z</time>
            </trkpt>
            <trkpt lon="100.109997" lat="15.481002">
                <ele>20.805664</ele>
                <time>2005-10-30T03:18:12Z</time>
            </trkpt>
            <trkpt lon="100.110319" lat="15.482140">
                <ele>21.766968</ele>
                <time>2005-10-30T03:18:31Z</time>
            </trkpt>
            <trkpt lon="100.110619" lat="15.483534">
                <ele>24.170288</ele>
                <time>2005-10-30T03:18:53Z</time>
            </trkpt>
            <trkpt lon="100.110962" lat="15.484972">
                <ele>23.208984</ele>
                <time>2005-10-30T03:19:16Z</time>
            </trkpt>
            <trkpt lon="100.111349" lat="15.486302">
                <ele>23.208984</ele>
                <time>2005-10-30T03:19:38Z</time>
            </trkpt>
            <trkpt lon="100.111692" lat="15.487654">
                <ele>22.728271</ele>
                <time>2005-10-30T03:20:02Z</time>
            </trkpt>
            <trkpt lon="100.111992" lat="15.488620">
                <ele>24.170288</ele>
                <time>2005-10-30T03:20:19Z</time>
            </trkpt>
            <trkpt lon="100.112336" lat="15.489843">
                <ele>25.612305</ele>
                <time>2005-10-30T03:20:41Z</time>
            </trkpt>
            <trkpt lon="100.112658" lat="15.490594">
                <ele>24.170288</ele>
                <time>2005-10-30T03:20:57Z</time>
            </trkpt>
            <trkpt lon="100.112829" lat="15.491066">
                <ele>24.651001</ele>
                <time>2005-10-30T03:21:06Z</time>
            </trkpt>
            <trkpt lon="100.113130" lat="15.492225">
                <ele>28.496216</ele>
                <time>2005-10-30T03:21:30Z</time>
            </trkpt>
            <trkpt lon="100.113280" lat="15.492868">
                <ele>26.092896</ele>
                <time>2005-10-30T03:21:45Z</time>
            </trkpt>
            <trkpt lon="100.113473" lat="15.493555">
                <ele>24.651001</ele>
                <time>2005-10-30T03:22:00Z</time>
            </trkpt>
            <trkpt lon="100.113580" lat="15.493941">
                <ele>24.170288</ele>
                <time>2005-10-30T03:22:08Z</time>
            </trkpt>
            <trkpt lon="100.113666" lat="15.494478">
                <ele>23.208984</ele>
                <time>2005-10-30T03:22:20Z</time>
            </trkpt>
            <trkpt lon="100.113859" lat="15.495508">
                <ele>23.689575</ele>
                <time>2005-10-30T03:22:42Z</time>
            </trkpt>
            <trkpt lon="100.113966" lat="15.496001">
                <ele>23.689575</ele>
                <time>2005-10-30T03:22:52Z</time>
            </trkpt>
            <trkpt lon="100.114224" lat="15.496731">
                <ele>23.689575</ele>
                <time>2005-10-30T03:23:10Z</time>
            </trkpt>
            <trkpt lon="100.114460" lat="15.497546">
                <ele>21.286377</ele>
                <time>2005-10-30T03:23:27Z</time>
            </trkpt>
            <trkpt lon="100.114653" lat="15.498254">
                <ele>17.921753</ele>
                <time>2005-10-30T03:23:42Z</time>
            </trkpt>
            <trkpt lon="100.114911" lat="15.499005">
                <ele>18.883057</ele>
                <time>2005-10-30T03:23:59Z</time>
            </trkpt>
            <trkpt lon="100.115168" lat="15.499971">
                <ele>20.324951</ele>
                <time>2005-10-30T03:24:19Z</time>
            </trkpt>
            <trkpt lon="100.115533" lat="15.500937">
                <ele>19.363770</ele>
                <time>2005-10-30T03:24:40Z</time>
            </trkpt>
            <trkpt lon="100.115619" lat="15.501130">
                <ele>18.402344</ele>
                <time>2005-10-30T03:24:45Z</time>
            </trkpt>
            <trkpt lon="100.115898" lat="15.501688">
                <ele>21.286377</ele>
                <time>2005-10-30T03:25:00Z</time>
            </trkpt>
            <trkpt lon="100.116241" lat="15.502782">
                <ele>20.324951</ele>
                <time>2005-10-30T03:25:24Z</time>
            </trkpt>
            <trkpt lon="100.116584" lat="15.503511">
                <ele>20.324951</ele>
                <time>2005-10-30T03:25:40Z</time>
            </trkpt>
            <trkpt lon="100.117013" lat="15.504649">
                <ele>18.402344</ele>
                <time>2005-10-30T03:26:04Z</time>
            </trkpt>
            <trkpt lon="100.117185" lat="15.505142">
                <ele>18.402344</ele>
                <time>2005-10-30T03:26:18Z</time>
            </trkpt>
            <trkpt lon="100.117228" lat="15.505207">
                <ele>18.883057</ele>
                <time>2005-10-30T03:26:23Z</time>
            </trkpt>
            <trkpt lon="100.117335" lat="15.505185">
                <ele>18.402344</ele>
                <time>2005-10-30T03:26:27Z</time>
            </trkpt>
            <trkpt lon="100.117636" lat="15.505078">
                <ele>16.960449</ele>
                <time>2005-10-30T03:26:38Z</time>
            </trkpt>
            <trkpt lon="100.117722" lat="15.505035">
                <ele>17.441162</ele>
                <time>2005-10-30T03:26:51Z</time>
            </trkpt>
            <trkpt lon="100.117722" lat="15.504992">
                <ele>19.363770</ele>
                <time>2005-10-30T03:27:10Z</time>
            </trkpt>
            <trkpt lon="100.117743" lat="15.504971">
                <ele>19.363770</ele>
                <time>2005-10-30T03:27:48Z</time>
            </trkpt>
            <trkpt lon="100.117786" lat="15.504928">
                <ele>18.883057</ele>
                <time>2005-10-30T03:28:33Z</time>
            </trkpt>
            <trkpt lon="100.118001" lat="15.504713">
                <ele>18.883057</ele>
                <time>2005-10-30T03:28:57Z</time>
            </trkpt>
            <trkpt lon="100.118601" lat="15.504498">
                <ele>15.518433</ele>
                <time>2005-10-30T03:29:46Z</time>
            </trkpt>
            <trkpt lon="100.118988" lat="15.504606">
                <ele>13.595825</ele>
                <time>2005-10-30T03:30:19Z</time>
            </trkpt>
            <trkpt lon="100.119138" lat="15.504606">
                <ele>16.479736</ele>
                <time>2005-10-30T03:30:46Z</time>
            </trkpt>
            <trkpt lon="100.119224" lat="15.504649">
                <ele>18.402344</ele>
                <time>2005-10-30T03:31:20Z</time>
            </trkpt>
            <trkpt lon="100.119288" lat="15.504735">
                <ele>24.651001</ele>
                <time>2005-10-30T03:31:41Z</time>
            </trkpt>
            <trkpt lon="100.119331" lat="15.504756">
                <ele>21.286377</ele>
                <time>2005-10-30T03:31:55Z</time>
            </trkpt>
            <trkpt lon="100.119352" lat="15.504713">
                <ele>23.689575</ele>
                <time>2005-10-30T03:44:22Z</time>
            </trkpt>
            <trkpt lon="100.119545" lat="15.504563">
                <ele>25.612305</ele>
                <time>2005-10-30T03:44:41Z</time>
            </trkpt>
            <trkpt lon="100.119545" lat="15.504520">
                <ele>26.092896</ele>
                <time>2005-10-30T03:44:45Z</time>
            </trkpt>
            <trkpt lon="100.119352" lat="15.504112">
                <ele>25.612305</ele>
                <time>2005-10-30T03:44:57Z</time>
            </trkpt>
            <trkpt lon="100.119052" lat="15.503147">
                <ele>24.651001</ele>
                <time>2005-10-30T03:45:18Z</time>
            </trkpt>
            <trkpt lon="100.118752" lat="15.501945">
                <ele>22.247559</ele>
                <time>2005-10-30T03:45:43Z</time>
            </trkpt>
            <trkpt lon="100.118601" lat="15.500722">
                <ele>22.247559</ele>
                <time>2005-10-30T03:46:09Z</time>
            </trkpt>
            <trkpt lon="100.118408" lat="15.499198">
                <ele>24.170288</ele>
                <time>2005-10-30T03:46:37Z</time>
            </trkpt>
            <trkpt lon="100.118365" lat="15.498834">
                <ele>24.170288</ele>
                <time>2005-10-30T03:46:44Z</time>
            </trkpt>
            <trkpt lon="100.118022" lat="15.497439">
                <ele>24.651001</ele>
                <time>2005-10-30T03:47:08Z</time>
            </trkpt>
            <trkpt lon="100.117571" lat="15.496023">
                <ele>25.131714</ele>
                <time>2005-10-30T03:47:33Z</time>
            </trkpt>
            <trkpt lon="100.117357" lat="15.495272">
                <ele>25.612305</ele>
                <time>2005-10-30T03:47:47Z</time>
            </trkpt>
            <trkpt lon="100.117571" lat="15.496452">
                <ele>27.054321</ele>
                <time>2005-10-30T03:48:02Z</time>
            </trkpt>
            <trkpt lon="100.117679" lat="15.496817">
                <ele>27.054321</ele>
                <time>2005-10-30T03:48:11Z</time>
            </trkpt>
            <trkpt lon="100.117679" lat="15.496967">
                <ele>26.573608</ele>
                <time>2005-10-30T03:48:14Z</time>
            </trkpt>
            <trkpt lon="100.117915" lat="15.497782">
                <ele>25.612305</ele>
                <time>2005-10-30T03:48:32Z</time>
            </trkpt>
            <trkpt lon="100.118129" lat="15.497847">
                <ele>26.092896</ele>
                <time>2005-10-30T03:48:42Z</time>
            </trkpt>
            <trkpt lon="100.118258" lat="15.498018">
                <ele>24.170288</ele>
                <time>2005-10-30T03:48:52Z</time>
            </trkpt>
            <trkpt lon="100.118709" lat="15.497954">
                <ele>24.170288</ele>
                <time>2005-10-30T03:49:07Z</time>
            </trkpt>
            <trkpt lon="100.119481" lat="15.497847">
                <ele>24.170288</ele>
                <time>2005-10-30T03:49:25Z</time>
            </trkpt>
            <trkpt lon="100.119975" lat="15.497761">
                <ele>23.689575</ele>
                <time>2005-10-30T03:49:39Z</time>
            </trkpt>
            <trkpt lon="100.120447" lat="15.497675">
                <ele>23.208984</ele>
                <time>2005-10-30T03:49:51Z</time>
            </trkpt>
            <trkpt lon="100.120962" lat="15.497589">
                <ele>22.728271</ele>
                <time>2005-10-30T03:50:04Z</time>
            </trkpt>
            <trkpt lon="100.121241" lat="15.497546">
                <ele>22.728271</ele>
                <time>2005-10-30T03:50:11Z</time>
            </trkpt>
            <trkpt lon="100.121820" lat="15.497482">
                <ele>21.766968</ele>
                <time>2005-10-30T03:50:26Z</time>
            </trkpt>
            <trkpt lon="100.122206" lat="15.497417">
                <ele>21.766968</ele>
                <time>2005-10-30T03:50:35Z</time>
            </trkpt>
            <trkpt lon="100.122871" lat="15.497332">
                <ele>20.805664</ele>
                <time>2005-10-30T03:50:50Z</time>
            </trkpt>
            <trkpt lon="100.123494" lat="15.497246">
                <ele>19.844360</ele>
                <time>2005-10-30T03:51:06Z</time>
            </trkpt>
            <trkpt lon="100.123944" lat="15.497203">
                <ele>20.805664</ele>
                <time>2005-10-30T03:51:18Z</time>
            </trkpt>
            <trkpt lon="100.124631" lat="15.497139">
                <ele>20.805664</ele>
                <time>2005-10-30T03:51:35Z</time>
            </trkpt>
            <trkpt lon="100.124910" lat="15.497117">
                <ele>19.844360</ele>
                <time>2005-10-30T03:51:45Z</time>
            </trkpt>
            <trkpt lon="100.125039" lat="15.496924">
                <ele>16.960449</ele>
                <time>2005-10-30T03:51:53Z</time>
            </trkpt>
            <trkpt lon="100.125146" lat="15.496924">
                <ele>18.402344</ele>
                <time>2005-10-30T03:52:02Z</time>
            </trkpt>
            <trkpt lon="100.125489" lat="15.496945">
                <ele>17.921753</ele>
                <time>2005-10-30T03:52:14Z</time>
            </trkpt>
            <trkpt lon="100.126262" lat="15.496795">
                <ele>18.402344</ele>
                <time>2005-10-30T03:52:32Z</time>
            </trkpt>
            <trkpt lon="100.127056" lat="15.496624">
                <ele>19.844360</ele>
                <time>2005-10-30T03:52:52Z</time>
            </trkpt>
            <trkpt lon="100.127227" lat="15.496559">
                <ele>20.324951</ele>
                <time>2005-10-30T03:52:57Z</time>
            </trkpt>
            <trkpt lon="100.127227" lat="15.496538">
                <ele>20.805664</ele>
                <time>2005-10-30T03:53:01Z</time>
            </trkpt>
            <trkpt lon="100.127120" lat="15.496387">
                <ele>20.805664</ele>
                <time>2005-10-30T03:53:10Z</time>
            </trkpt>
            <trkpt lon="100.127270" lat="15.495658">
                <ele>20.805664</ele>
                <time>2005-10-30T03:53:29Z</time>
            </trkpt>
            <trkpt lon="100.127249" lat="15.495594">
                <ele>20.805664</ele>
                <time>2005-10-30T03:53:39Z</time>
            </trkpt>
            <trkpt lon="100.127249" lat="15.495594">
                <ele>20.805664</ele>
                <time>2005-10-30T03:53:40Z</time>
            </trkpt>
            <trkpt lon="100.127249" lat="15.495851">
                <ele>20.324951</ele>
                <time>2005-10-30T03:53:50Z</time>
            </trkpt>
            <trkpt lon="100.127141" lat="15.496538">
                <ele>20.805664</ele>
                <time>2005-10-30T03:54:06Z</time>
            </trkpt>
            <trkpt lon="100.127034" lat="15.496645">
                <ele>20.805664</ele>
                <time>2005-10-30T03:54:10Z</time>
            </trkpt>
            <trkpt lon="100.126047" lat="15.496860">
                <ele>19.844360</ele>
                <time>2005-10-30T03:54:29Z</time>
            </trkpt>
            <trkpt lon="100.125446" lat="15.496945">
                <ele>19.844360</ele>
                <time>2005-10-30T03:54:43Z</time>
            </trkpt>
            <trkpt lon="100.125017" lat="15.496967">
                <ele>20.324951</ele>
                <time>2005-10-30T03:54:59Z</time>
            </trkpt>
            <trkpt lon="100.124953" lat="15.497074">
                <ele>21.766968</ele>
                <time>2005-10-30T03:55:11Z</time>
            </trkpt>
            <trkpt lon="100.124931" lat="15.497160">
                <ele>22.728271</ele>
                <time>2005-10-30T03:55:25Z</time>
            </trkpt>
            <trkpt lon="100.124910" lat="15.497267">
                <ele>22.728271</ele>
                <time>2005-10-30T03:55:31Z</time>
            </trkpt>
            <trkpt lon="100.124760" lat="15.497761">
                <ele>22.247559</ele>
                <time>2005-10-30T03:55:49Z</time>
            </trkpt>
            <trkpt lon="100.124674" lat="15.498126">
                <ele>22.728271</ele>
                <time>2005-10-30T03:56:03Z</time>
            </trkpt>
            <trkpt lon="100.124588" lat="15.498512">
                <ele>22.728271</ele>
                <time>2005-10-30T03:56:20Z</time>
            </trkpt>
            <trkpt lon="100.124502" lat="15.498855">
                <ele>22.728271</ele>
                <time>2005-10-30T03:56:34Z</time>
            </trkpt>
            <trkpt lon="100.124416" lat="15.499198">
                <ele>22.247559</ele>
                <time>2005-10-30T03:56:48Z</time>
            </trkpt>
            <trkpt lon="100.124331" lat="15.499628">
                <ele>23.208984</ele>
                <time>2005-10-30T03:57:04Z</time>
            </trkpt>
            <trkpt lon="100.124309" lat="15.499928">
                <ele>22.728271</ele>
                <time>2005-10-30T03:57:15Z</time>
            </trkpt>
            <trkpt lon="100.124695" lat="15.499971">
                <ele>22.247559</ele>
                <time>2005-10-30T03:57:29Z</time>
            </trkpt>
            <trkpt lon="100.124824" lat="15.499971">
                <ele>21.766968</ele>
                <time>2005-10-30T03:57:34Z</time>
            </trkpt>
            <trkpt lon="100.124996" lat="15.500185">
                <ele>20.324951</ele>
                <time>2005-10-30T03:57:43Z</time>
            </trkpt>
            <trkpt lon="100.125232" lat="15.500486">
                <ele>20.805664</ele>
                <time>2005-10-30T03:57:54Z</time>
            </trkpt>
            <trkpt lon="100.125360" lat="15.500572">
                <ele>20.805664</ele>
                <time>2005-10-30T03:57:58Z</time>
            </trkpt>
            <trkpt lon="100.125360" lat="15.500743">
                <ele>20.805664</ele>
                <time>2005-10-30T03:58:02Z</time>
            </trkpt>
            <trkpt lon="100.125339" lat="15.501516">
                <ele>21.286377</ele>
                <time>2005-10-30T03:58:20Z</time>
            </trkpt>
            <trkpt lon="100.125296" lat="15.501988">
                <ele>22.728271</ele>
                <time>2005-10-30T03:58:32Z</time>
            </trkpt>
            <trkpt lon="100.125017" lat="15.502653">
                <ele>22.728271</ele>
                <time>2005-10-30T03:58:47Z</time>
            </trkpt>
            <trkpt lon="100.124824" lat="15.503039">
                <ele>22.247559</ele>
                <time>2005-10-30T03:58:56Z</time>
            </trkpt>
            <trkpt lon="100.124652" lat="15.503361">
                <ele>21.286377</ele>
                <time>2005-10-30T03:59:05Z</time>
            </trkpt>
            <trkpt lon="100.124609" lat="15.503876">
                <ele>21.286377</ele>
                <time>2005-10-30T03:59:18Z</time>
            </trkpt>
            <trkpt lon="100.124609" lat="15.504091">
                <ele>21.286377</ele>
                <time>2005-10-30T03:59:23Z</time>
            </trkpt>
            <trkpt lon="100.124717" lat="15.504477">
                <ele>21.766968</ele>
                <time>2005-10-30T03:59:34Z</time>
            </trkpt>
            <trkpt lon="100.124953" lat="15.504670">
                <ele>25.131714</ele>
                <time>2005-10-30T03:59:45Z</time>
            </trkpt>
            <trkpt lon="100.124910" lat="15.505013">
                <ele>23.689575</ele>
                <time>2005-10-30T03:59:56Z</time>
            </trkpt>
            <trkpt lon="100.124910" lat="15.505056">
                <ele>23.689575</ele>
                <time>2005-10-30T03:59:57Z</time>
            </trkpt>
            <trkpt lon="100.124524" lat="15.505078">
                <ele>20.805664</ele>
                <time>2005-10-30T04:00:06Z</time>
            </trkpt>
            <trkpt lon="100.124395" lat="15.505078">
                <ele>20.324951</ele>
                <time>2005-10-30T04:00:08Z</time>
            </trkpt>
            <trkpt lon="100.124137" lat="15.505013">
                <ele>19.363770</ele>
                <time>2005-10-30T04:00:13Z</time>
            </trkpt>
            <trkpt lon="100.123515" lat="15.505056">
                <ele>18.402344</ele>
                <time>2005-10-30T04:00:24Z</time>
            </trkpt>
            <trkpt lon="100.122764" lat="15.505056">
                <ele>18.883057</ele>
                <time>2005-10-30T04:00:36Z</time>
            </trkpt>
            <trkpt lon="100.122614" lat="15.505142">
                <ele>19.363770</ele>
                <time>2005-10-30T04:00:39Z</time>
            </trkpt>
            <trkpt lon="100.122464" lat="15.505185">
                <ele>19.363770</ele>
                <time>2005-10-30T04:00:42Z</time>
            </trkpt>
            <trkpt lon="100.122335" lat="15.505292">
                <ele>19.363770</ele>
                <time>2005-10-30T04:00:45Z</time>
            </trkpt>
            <trkpt lon="100.122206" lat="15.505443">
                <ele>19.363770</ele>
                <time>2005-10-30T04:00:49Z</time>
            </trkpt>
            <trkpt lon="100.122163" lat="15.505528">
                <ele>19.844360</ele>
                <time>2005-10-30T04:00:51Z</time>
            </trkpt>
            <trkpt lon="100.122099" lat="15.505764">
                <ele>19.363770</ele>
                <time>2005-10-30T04:00:56Z</time>
            </trkpt>
            <trkpt lon="100.122077" lat="15.505936">
                <ele>19.363770</ele>
                <time>2005-10-30T04:01:00Z</time>
            </trkpt>
            <trkpt lon="100.122099" lat="15.506065">
                <ele>19.363770</ele>
                <time>2005-10-30T04:01:03Z</time>
            </trkpt>
            <trkpt lon="100.121927" lat="15.506322">
                <ele>19.844360</ele>
                <time>2005-10-30T04:01:10Z</time>
            </trkpt>
            <trkpt lon="100.121541" lat="15.506623">
                <ele>20.324951</ele>
                <time>2005-10-30T04:01:21Z</time>
            </trkpt>
            <trkpt lon="100.121326" lat="15.506709">
                <ele>20.324951</ele>
                <time>2005-10-30T04:01:27Z</time>
            </trkpt>
            <trkpt lon="100.121369" lat="15.506816">
                <ele>20.324951</ele>
                <time>2005-10-30T04:01:32Z</time>
            </trkpt>
            <trkpt lon="100.121820" lat="15.507288">
                <ele>20.324951</ele>
                <time>2005-10-30T04:01:49Z</time>
            </trkpt>
            <trkpt lon="100.121841" lat="15.507309">
                <ele>20.805664</ele>
                <time>2005-10-30T04:01:50Z</time>
            </trkpt>
            <trkpt lon="100.122399" lat="15.508039">
                <ele>20.805664</ele>
                <time>2005-10-30T04:02:10Z</time>
            </trkpt>
            <trkpt lon="100.122485" lat="15.508168">
                <ele>20.324951</ele>
                <time>2005-10-30T04:02:13Z</time>
            </trkpt>
            <trkpt lon="100.122721" lat="15.508833">
                <ele>20.805664</ele>
                <time>2005-10-30T04:02:28Z</time>
            </trkpt>
            <trkpt lon="100.122743" lat="15.509605">
                <ele>20.324951</ele>
                <time>2005-10-30T04:02:44Z</time>
            </trkpt>
            <trkpt lon="100.122743" lat="15.509627">
                <ele>20.324951</ele>
                <time>2005-10-30T04:02:45Z</time>
            </trkpt>
            <trkpt lon="100.122635" lat="15.509648">
                <ele>21.286377</ele>
                <time>2005-10-30T04:02:49Z</time>
            </trkpt>
            <trkpt lon="100.122550" lat="15.509605">
                <ele>21.766968</ele>
                <time>2005-10-30T04:02:53Z</time>
            </trkpt>
            <trkpt lon="100.122528" lat="15.509198">
                <ele>20.805664</ele>
                <time>2005-10-30T04:03:08Z</time>
            </trkpt>
            <trkpt lon="100.122464" lat="15.508769">
                <ele>20.324951</ele>
                <time>2005-10-30T04:03:22Z</time>
            </trkpt>
            <trkpt lon="100.122271" lat="15.508275">
                <ele>20.805664</ele>
                <time>2005-10-30T04:03:38Z</time>
            </trkpt>
            <trkpt lon="100.122228" lat="15.508211">
                <ele>20.805664</ele>
                <time>2005-10-30T04:03:47Z</time>
            </trkpt>
            <trkpt lon="100.122228" lat="15.508232">
                <ele>20.805664</ele>
                <time>2005-10-30T04:03:48Z</time>
            </trkpt>
            <trkpt lon="100.122249" lat="15.508275">
                <ele>20.805664</ele>
                <time>2005-10-30T04:03:52Z</time>
            </trkpt>
            <trkpt lon="100.122485" lat="15.508833">
                <ele>21.286377</ele>
                <time>2005-10-30T04:04:07Z</time>
            </trkpt>
            <trkpt lon="100.122550" lat="15.509541">
                <ele>21.286377</ele>
                <time>2005-10-30T04:04:23Z</time>
            </trkpt>
            <trkpt lon="100.122635" lat="15.509670">
                <ele>21.286377</ele>
                <time>2005-10-30T04:04:28Z</time>
            </trkpt>
            <trkpt lon="100.122764" lat="15.509906">
                <ele>21.286377</ele>
                <time>2005-10-30T04:04:35Z</time>
            </trkpt>
            <trkpt lon="100.122678" lat="15.510249">
                <ele>21.766968</ele>
                <time>2005-10-30T04:04:43Z</time>
            </trkpt>
            <trkpt lon="100.122614" lat="15.510314">
                <ele>22.247559</ele>
                <time>2005-10-30T04:04:45Z</time>
            </trkpt>
            <trkpt lon="100.122507" lat="15.510464">
                <ele>23.208984</ele>
                <time>2005-10-30T04:04:49Z</time>
            </trkpt>
            <trkpt lon="100.122356" lat="15.511193">
                <ele>22.728271</ele>
                <time>2005-10-30T04:05:05Z</time>
            </trkpt>
            <trkpt lon="100.122335" lat="15.511236">
                <ele>22.728271</ele>
                <time>2005-10-30T04:05:06Z</time>
            </trkpt>
            <trkpt lon="100.122228" lat="15.511644">
                <ele>22.728271</ele>
                <time>2005-10-30T04:05:20Z</time>
            </trkpt>
            <trkpt lon="100.122185" lat="15.511944">
                <ele>22.247559</ele>
                <time>2005-10-30T04:05:27Z</time>
            </trkpt>
            <trkpt lon="100.121820" lat="15.512781">
                <ele>19.844360</ele>
                <time>2005-10-30T04:05:47Z</time>
            </trkpt>
            <trkpt lon="100.121262" lat="15.513361">
                <ele>20.324951</ele>
                <time>2005-10-30T04:06:04Z</time>
            </trkpt>
            <trkpt lon="100.121069" lat="15.513511">
                <ele>20.324951</ele>
                <time>2005-10-30T04:06:10Z</time>
            </trkpt>
            <trkpt lon="100.121090" lat="15.513618">
                <ele>20.324951</ele>
                <time>2005-10-30T04:06:14Z</time>
            </trkpt>
            <trkpt lon="100.121627" lat="15.513897">
                <ele>19.844360</ele>
                <time>2005-10-30T04:06:31Z</time>
            </trkpt>
            <trkpt lon="100.121756" lat="15.514047">
                <ele>18.883057</ele>
                <time>2005-10-30T04:06:37Z</time>
            </trkpt>
            <trkpt lon="100.121584" lat="15.514820">
                <ele>19.363770</ele>
                <time>2005-10-30T04:06:54Z</time>
            </trkpt>
            <trkpt lon="100.121434" lat="15.515249">
                <ele>20.324951</ele>
                <time>2005-10-30T04:07:03Z</time>
            </trkpt>
            <trkpt lon="100.121155" lat="15.515356">
                <ele>20.324951</ele>
                <time>2005-10-30T04:07:10Z</time>
            </trkpt>
            <trkpt lon="100.120189" lat="15.515420">
                <ele>21.286377</ele>
                <time>2005-10-30T04:07:32Z</time>
            </trkpt>
            <trkpt lon="100.119460" lat="15.515420">
                <ele>21.766968</ele>
                <time>2005-10-30T04:07:50Z</time>
            </trkpt>
            <trkpt lon="100.118730" lat="15.515463">
                <ele>21.766968</ele>
                <time>2005-10-30T04:08:05Z</time>
            </trkpt>
            <trkpt lon="100.117528" lat="15.515270">
                <ele>21.286377</ele>
                <time>2005-10-30T04:08:26Z</time>
            </trkpt>
            <trkpt lon="100.116262" lat="15.514798">
                <ele>22.247559</ele>
                <time>2005-10-30T04:08:48Z</time>
            </trkpt>
            <trkpt lon="100.114846" lat="15.514004">
                <ele>21.766968</ele>
                <time>2005-10-30T04:09:13Z</time>
            </trkpt>
            <trkpt lon="100.113387" lat="15.513403">
                <ele>22.247559</ele>
                <time>2005-10-30T04:09:36Z</time>
            </trkpt>
            <trkpt lon="100.111992" lat="15.512803">
                <ele>22.247559</ele>
                <time>2005-10-30T04:09:59Z</time>
            </trkpt>
            <trkpt lon="100.110855" lat="15.512352">
                <ele>22.728271</ele>
                <time>2005-10-30T04:10:18Z</time>
            </trkpt>
            <trkpt lon="100.109525" lat="15.512052">
                <ele>23.208984</ele>
                <time>2005-10-30T04:10:39Z</time>
            </trkpt>
            <trkpt lon="100.108023" lat="15.511880">
                <ele>21.766968</ele>
                <time>2005-10-30T04:11:02Z</time>
            </trkpt>
            <trkpt lon="100.106564" lat="15.511730">
                <ele>20.324951</ele>
                <time>2005-10-30T04:11:25Z</time>
            </trkpt>
            <trkpt lon="100.105383" lat="15.511837">
                <ele>20.805664</ele>
                <time>2005-10-30T04:11:43Z</time>
            </trkpt>
            <trkpt lon="100.103817" lat="15.512116">
                <ele>19.844360</ele>
                <time>2005-10-30T04:12:07Z</time>
            </trkpt>
            <trkpt lon="100.102530" lat="15.512545">
                <ele>18.883057</ele>
                <time>2005-10-30T04:12:29Z</time>
            </trkpt>
            <trkpt lon="100.102186" lat="15.512652">
                <ele>18.883057</ele>
                <time>2005-10-30T04:12:37Z</time>
            </trkpt>
            <trkpt lon="100.102122" lat="15.512588">
                <ele>17.441162</ele>
                <time>2005-10-30T04:12:41Z</time>
            </trkpt>
            <trkpt lon="100.102036" lat="15.512502">
                <ele>16.960449</ele>
                <time>2005-10-30T04:12:52Z</time>
            </trkpt>
            <trkpt lon="100.102036" lat="15.512502">
                <ele>16.960449</ele>
                <time>2005-10-30T04:14:47Z</time>
            </trkpt>
            <trkpt lon="100.102015" lat="15.512502">
                <ele>16.479736</ele>
                <time>2005-10-30T04:18:22Z</time>
            </trkpt>
            <trkpt lon="100.101950" lat="15.512502">
                <ele>16.960449</ele>
                <time>2005-10-30T04:18:38Z</time>
            </trkpt>
            <trkpt lon="100.101929" lat="15.512459">
                <ele>16.960449</ele>
                <time>2005-10-30T04:19:01Z</time>
            </trkpt>
            <trkpt lon="100.101907" lat="15.512438">
                <ele>16.960449</ele>
                <time>2005-10-30T04:19:28Z</time>
            </trkpt>
            <trkpt lon="100.101907" lat="15.512459">
                <ele>17.441162</ele>
                <time>2005-10-30T04:21:19Z</time>
            </trkpt>
            <trkpt lon="100.101907" lat="15.512459">
                <ele>17.921753</ele>
                <time>2005-10-30T04:22:21Z</time>
            </trkpt>
            <trkpt lon="100.101907" lat="15.512459">
                <ele>16.960449</ele>
                <time>2005-10-30T04:23:20Z</time>
            </trkpt>
            <trkpt lon="100.101907" lat="15.512438">
                <ele>16.479736</ele>
                <time>2005-10-30T04:24:06Z</time>
            </trkpt>
            <trkpt lon="100.101821" lat="15.512395">
                <ele>16.479736</ele>
                <time>2005-10-30T04:24:42Z</time>
            </trkpt>
            <trkpt lon="100.101607" lat="15.512073">
                <ele>16.960449</ele>
                <time>2005-10-30T04:25:04Z</time>
            </trkpt>
            <trkpt lon="100.101478" lat="15.511150">
                <ele>17.441162</ele>
                <time>2005-10-30T04:25:40Z</time>
            </trkpt>
            <trkpt lon="100.101457" lat="15.510464">
                <ele>16.479736</ele>
                <time>2005-10-30T04:26:09Z</time>
            </trkpt>
            <trkpt lon="100.101435" lat="15.510378">
                <ele>17.921753</ele>
                <time>2005-10-30T04:26:31Z</time>
            </trkpt>
            <trkpt lon="100.101457" lat="15.510356">
                <ele>17.441162</ele>
                <time>2005-10-30T04:26:38Z</time>
            </trkpt>
            <trkpt lon="100.101478" lat="15.510292">
                <ele>17.921753</ele>
                <time>2005-10-30T04:26:45Z</time>
            </trkpt>
            <trkpt lon="100.101671" lat="15.510163">
                <ele>21.286377</ele>
                <time>2005-10-30T04:27:03Z</time>
            </trkpt>
            <trkpt lon="100.101693" lat="15.510142">
                <ele>21.766968</ele>
                <time>2005-10-30T04:27:08Z</time>
            </trkpt>
            <trkpt lon="100.101650" lat="15.510142">
                <ele>21.766968</ele>
                <time>2005-10-30T04:27:12Z</time>
            </trkpt>
            <trkpt lon="100.101564" lat="15.510163">
                <ele>21.286377</ele>
                <time>2005-10-30T04:27:17Z</time>
            </trkpt>
            <trkpt lon="100.101242" lat="15.510292">
                <ele>21.766968</ele>
                <time>2005-10-30T04:27:31Z</time>
            </trkpt>
            <trkpt lon="100.100620" lat="15.510571">
                <ele>22.728271</ele>
                <time>2005-10-30T04:27:48Z</time>
            </trkpt>
            <trkpt lon="100.099783" lat="15.510893">
                <ele>21.286377</ele>
                <time>2005-10-30T04:28:08Z</time>
            </trkpt>
            <trkpt lon="100.098817" lat="15.511236">
                <ele>19.844360</ele>
                <time>2005-10-30T04:28:29Z</time>
            </trkpt>
            <trkpt lon="100.097938" lat="15.511429">
                <ele>20.324951</ele>
                <time>2005-10-30T04:28:48Z</time>
            </trkpt>
            <trkpt lon="100.097852" lat="15.511451">
                <ele>20.324951</ele>
                <time>2005-10-30T04:28:50Z</time>
            </trkpt>
            <trkpt lon="100.097530" lat="15.511773">
                <ele>21.766968</ele>
                <time>2005-10-30T04:29:06Z</time>
            </trkpt>
            <trkpt lon="100.097551" lat="15.511794">
                <ele>22.728271</ele>
                <time>2005-10-30T04:30:29Z</time>
            </trkpt>
            <trkpt lon="100.097508" lat="15.511816">
                <ele>23.689575</ele>
                <time>2005-10-30T04:33:34Z</time>
            </trkpt>
            <trkpt lon="100.097401" lat="15.511880">
                <ele>26.573608</ele>
                <time>2005-10-30T04:46:32Z</time>
            </trkpt>
            <trkpt lon="100.096886" lat="15.512094">
                <ele>25.131714</ele>
                <time>2005-10-30T04:46:47Z</time>
            </trkpt>
            <trkpt lon="100.096178" lat="15.512502">
                <ele>24.651001</ele>
                <time>2005-10-30T04:47:04Z</time>
            </trkpt>
            <trkpt lon="100.096028" lat="15.512609">
                <ele>24.651001</ele>
                <time>2005-10-30T04:47:08Z</time>
            </trkpt>
            <trkpt lon="100.095685" lat="15.512695">
                <ele>23.689575</ele>
                <time>2005-10-30T04:47:17Z</time>
            </trkpt>
            <trkpt lon="100.095255" lat="15.513146">
                <ele>21.766968</ele>
                <time>2005-10-30T04:47:32Z</time>
            </trkpt>
            <trkpt lon="100.094526" lat="15.513833">
                <ele>20.805664</ele>
                <time>2005-10-30T04:47:52Z</time>
            </trkpt>
            <trkpt lon="100.094311" lat="15.514047">
                <ele>19.844360</ele>
                <time>2005-10-30T04:47:58Z</time>
            </trkpt>
            <trkpt lon="100.094011" lat="15.514348">
                <ele>19.363770</ele>
                <time>2005-10-30T04:48:07Z</time>
            </trkpt>
            <trkpt lon="100.093818" lat="15.514498">
                <ele>20.324951</ele>
                <time>2005-10-30T04:48:12Z</time>
            </trkpt>
            <trkpt lon="100.093689" lat="15.514777">
                <ele>19.844360</ele>
                <time>2005-10-30T04:48:18Z</time>
            </trkpt>
            <trkpt lon="100.093560" lat="15.514927">
                <ele>19.844360</ele>
                <time>2005-10-30T04:48:22Z</time>
            </trkpt>
            <trkpt lon="100.093131" lat="15.515721">
                <ele>20.324951</ele>
                <time>2005-10-30T04:48:39Z</time>
            </trkpt>
            <trkpt lon="100.092444" lat="15.516815">
                <ele>19.363770</ele>
                <time>2005-10-30T04:49:03Z</time>
            </trkpt>
            <trkpt lon="100.092123" lat="15.517588">
                <ele>21.286377</ele>
                <time>2005-10-30T04:49:19Z</time>
            </trkpt>
            <trkpt lon="100.091951" lat="15.518725">
                <ele>22.247559</ele>
                <time>2005-10-30T04:49:42Z</time>
            </trkpt>
            <trkpt lon="100.091844" lat="15.519540">
                <ele>23.208984</ele>
                <time>2005-10-30T04:49:58Z</time>
            </trkpt>
            <trkpt lon="100.091887" lat="15.520141">
                <ele>23.689575</ele>
                <time>2005-10-30T04:50:10Z</time>
            </trkpt>
            <trkpt lon="100.091736" lat="15.520656">
                <ele>23.689575</ele>
                <time>2005-10-30T04:50:20Z</time>
            </trkpt>
            <trkpt lon="100.091565" lat="15.520935">
                <ele>24.170288</ele>
                <time>2005-10-30T04:50:27Z</time>
            </trkpt>
            <trkpt lon="100.091500" lat="15.521128">
                <ele>24.170288</ele>
                <time>2005-10-30T04:50:31Z</time>
            </trkpt>
            <trkpt lon="100.091479" lat="15.522523">
                <ele>24.170288</ele>
                <time>2005-10-30T04:50:56Z</time>
            </trkpt>
            <trkpt lon="100.091522" lat="15.524025">
                <ele>23.208984</ele>
                <time>2005-10-30T04:51:21Z</time>
            </trkpt>
            <trkpt lon="100.091650" lat="15.524969">
                <ele>22.728271</ele>
                <time>2005-10-30T04:51:39Z</time>
            </trkpt>
            <trkpt lon="100.091929" lat="15.525827">
                <ele>22.728271</ele>
                <time>2005-10-30T04:51:57Z</time>
            </trkpt>
            <trkpt lon="100.092337" lat="15.526814">
                <ele>21.766968</ele>
                <time>2005-10-30T04:52:17Z</time>
            </trkpt>
            <trkpt lon="100.092466" lat="15.527244">
                <ele>21.286377</ele>
                <time>2005-10-30T04:52:30Z</time>
            </trkpt>
            <trkpt lon="100.092423" lat="15.527287">
                <ele>20.324951</ele>
                <time>2005-10-30T04:52:44Z</time>
            </trkpt>
            <trkpt lon="100.092380" lat="15.527287">
                <ele>21.286377</ele>
                <time>2005-10-30T04:52:53Z</time>
            </trkpt>
            <trkpt lon="100.092316" lat="15.527287">
                <ele>21.286377</ele>
                <time>2005-10-30T04:52:57Z</time>
            </trkpt>
            <trkpt lon="100.092187" lat="15.527351">
                <ele>22.247559</ele>
                <time>2005-10-30T04:53:05Z</time>
            </trkpt>
            <trkpt lon="100.092058" lat="15.527372">
                <ele>22.728271</ele>
                <time>2005-10-30T04:53:08Z</time>
            </trkpt>
            <trkpt lon="100.091844" lat="15.527437">
                <ele>23.208984</ele>
                <time>2005-10-30T04:53:13Z</time>
            </trkpt>
            <trkpt lon="100.091693" lat="15.527501">
                <ele>22.728271</ele>
                <time>2005-10-30T04:53:16Z</time>
            </trkpt>
            <trkpt lon="100.090706" lat="15.528059">
                <ele>19.363770</ele>
                <time>2005-10-30T04:53:36Z</time>
            </trkpt>
            <trkpt lon="100.090470" lat="15.528102">
                <ele>18.883057</ele>
                <time>2005-10-30T04:53:40Z</time>
            </trkpt>
            <trkpt lon="100.090170" lat="15.528080">
                <ele>19.363770</ele>
                <time>2005-10-30T04:53:45Z</time>
            </trkpt>
            <trkpt lon="100.089912" lat="15.527973">
                <ele>19.363770</ele>
                <time>2005-10-30T04:53:50Z</time>
            </trkpt>
            <trkpt lon="100.089698" lat="15.527909">
                <ele>19.844360</ele>
                <time>2005-10-30T04:53:54Z</time>
            </trkpt>
            <trkpt lon="100.088990" lat="15.527930">
                <ele>19.363770</ele>
                <time>2005-10-30T04:54:07Z</time>
            </trkpt>
            <trkpt lon="100.088904" lat="15.527737">
                <ele>18.883057</ele>
                <time>2005-10-30T04:54:14Z</time>
            </trkpt>
            <trkpt lon="100.088732" lat="15.527608">
                <ele>18.883057</ele>
                <time>2005-10-30T04:54:19Z</time>
            </trkpt>
            <trkpt lon="100.088282" lat="15.527458">
                <ele>19.363770</ele>
                <time>2005-10-30T04:54:28Z</time>
            </trkpt>
            <trkpt lon="100.087187" lat="15.527222">
                <ele>21.766968</ele>
                <time>2005-10-30T04:54:47Z</time>
            </trkpt>
            <trkpt lon="100.086758" lat="15.527158">
                <ele>21.766968</ele>
                <time>2005-10-30T04:54:54Z</time>
            </trkpt>
            <trkpt lon="100.085750" lat="15.526471">
                <ele>19.844360</ele>
                <time>2005-10-30T04:55:12Z</time>
            </trkpt>
            <trkpt lon="100.085192" lat="15.526085">
                <ele>19.363770</ele>
                <time>2005-10-30T04:55:23Z</time>
            </trkpt>
            <trkpt lon="100.084999" lat="15.526085">
                <ele>19.844360</ele>
                <time>2005-10-30T04:55:29Z</time>
            </trkpt>
            <trkpt lon="100.084934" lat="15.526106">
                <ele>19.844360</ele>
                <time>2005-10-30T04:55:42Z</time>
            </trkpt>
            <trkpt lon="100.084977" lat="15.526106">
                <ele>19.844360</ele>
                <time>2005-10-30T04:55:47Z</time>
            </trkpt>
            <trkpt lon="100.085320" lat="15.525935">
                <ele>20.805664</ele>
                <time>2005-10-30T04:56:02Z</time>
            </trkpt>
            <trkpt lon="100.086007" lat="15.525677">
                <ele>20.324951</ele>
                <time>2005-10-30T04:56:21Z</time>
            </trkpt>
            <trkpt lon="100.086265" lat="15.525334">
                <ele>19.844360</ele>
                <time>2005-10-30T04:56:33Z</time>
            </trkpt>
            <trkpt lon="100.086350" lat="15.525270">
                <ele>18.883057</ele>
                <time>2005-10-30T04:56:43Z</time>
            </trkpt>
            <trkpt lon="100.086565" lat="15.525076">
                <ele>18.883057</ele>
                <time>2005-10-30T04:56:55Z</time>
            </trkpt>
            <trkpt lon="100.086651" lat="15.524969">
                <ele>19.363770</ele>
                <time>2005-10-30T04:57:01Z</time>
            </trkpt>
            <trkpt lon="100.086715" lat="15.524905">
                <ele>20.324951</ele>
                <time>2005-10-30T04:57:05Z</time>
            </trkpt>
            <trkpt lon="100.086930" lat="15.524733">
                <ele>21.766968</ele>
                <time>2005-10-30T04:57:21Z</time>
            </trkpt>
            <trkpt lon="100.086930" lat="15.524733">
                <ele>21.286377</ele>
                <time>2005-10-30T04:57:24Z</time>
            </trkpt>
            <trkpt lon="100.086823" lat="15.524840">
                <ele>22.247559</ele>
                <time>2005-10-30T04:57:30Z</time>
            </trkpt>
            <trkpt lon="100.086265" lat="15.525334">
                <ele>19.844360</ele>
                <time>2005-10-30T04:57:46Z</time>
            </trkpt>
            <trkpt lon="100.086243" lat="15.525377">
                <ele>19.844360</ele>
                <time>2005-10-30T04:57:47Z</time>
            </trkpt>
            <trkpt lon="100.086093" lat="15.525570">
                <ele>19.363770</ele>
                <time>2005-10-30T04:57:52Z</time>
            </trkpt>
            <trkpt lon="100.085943" lat="15.525699">
                <ele>18.883057</ele>
                <time>2005-10-30T04:57:56Z</time>
            </trkpt>
            <trkpt lon="100.085213" lat="15.525978">
                <ele>19.363770</ele>
                <time>2005-10-30T04:58:15Z</time>
            </trkpt>
            <trkpt lon="100.084870" lat="15.526106">
                <ele>20.805664</ele>
                <time>2005-10-30T04:58:30Z</time>
            </trkpt>
            <trkpt lon="100.084462" lat="15.526149">
                <ele>19.844360</ele>
                <time>2005-10-30T04:58:42Z</time>
            </trkpt>
            <trkpt lon="100.083625" lat="15.526192">
                <ele>18.883057</ele>
                <time>2005-10-30T04:59:01Z</time>
            </trkpt>
            <trkpt lon="100.082896" lat="15.526385">
                <ele>20.805664</ele>
                <time>2005-10-30T04:59:18Z</time>
            </trkpt>
            <trkpt lon="100.082037" lat="15.526664">
                <ele>21.766968</ele>
                <time>2005-10-30T04:59:38Z</time>
            </trkpt>
            <trkpt lon="100.081501" lat="15.526621">
                <ele>20.805664</ele>
                <time>2005-10-30T04:59:49Z</time>
            </trkpt>
            <trkpt lon="100.080793" lat="15.526364">
                <ele>20.805664</ele>
                <time>2005-10-30T05:00:03Z</time>
            </trkpt>
            <trkpt lon="100.079870" lat="15.526063">
                <ele>19.363770</ele>
                <time>2005-10-30T05:00:20Z</time>
            </trkpt>
            <trkpt lon="100.079463" lat="15.525849">
                <ele>18.883057</ele>
                <time>2005-10-30T05:00:27Z</time>
            </trkpt>
            <trkpt lon="100.078561" lat="15.525656">
                <ele>18.883057</ele>
                <time>2005-10-30T05:00:42Z</time>
            </trkpt>
            <trkpt lon="100.077810" lat="15.525506">
                <ele>18.883057</ele>
                <time>2005-10-30T05:00:56Z</time>
            </trkpt>
            <trkpt lon="100.077424" lat="15.525270">
                <ele>18.883057</ele>
                <time>2005-10-30T05:01:04Z</time>
            </trkpt>
            <trkpt lon="100.076673" lat="15.524733">
                <ele>18.402344</ele>
                <time>2005-10-30T05:01:20Z</time>
            </trkpt>
            <trkpt lon="100.076094" lat="15.524175">
                <ele>17.441162</ele>
                <time>2005-10-30T05:01:34Z</time>
            </trkpt>
            <trkpt lon="100.076115" lat="15.523875">
                <ele>16.960449</ele>
                <time>2005-10-30T05:01:42Z</time>
            </trkpt>
            <trkpt lon="100.076158" lat="15.523725">
                <ele>17.441162</ele>
                <time>2005-10-30T05:01:45Z</time>
            </trkpt>
            <trkpt lon="100.076201" lat="15.523531">
                <ele>17.921753</ele>
                <time>2005-10-30T05:01:49Z</time>
            </trkpt>
            <trkpt lon="100.076222" lat="15.523360">
                <ele>17.441162</ele>
                <time>2005-10-30T05:01:52Z</time>
            </trkpt>
            <trkpt lon="100.076373" lat="15.522630">
                <ele>17.441162</ele>
                <time>2005-10-30T05:02:07Z</time>
            </trkpt>
            <trkpt lon="100.076437" lat="15.522373">
                <ele>17.921753</ele>
                <time>2005-10-30T05:02:13Z</time>
            </trkpt>
            <trkpt lon="100.076587" lat="15.521600">
                <ele>18.402344</ele>
                <time>2005-10-30T05:02:30Z</time>
            </trkpt>
            <trkpt lon="100.076673" lat="15.521214">
                <ele>18.402344</ele>
                <time>2005-10-30T05:02:43Z</time>
            </trkpt>
            <trkpt lon="100.076673" lat="15.521171">
                <ele>19.363770</ele>
                <time>2005-10-30T05:02:54Z</time>
            </trkpt>
            <trkpt lon="100.076630" lat="15.521171">
                <ele>18.402344</ele>
                <time>2005-10-30T05:03:00Z</time>
            </trkpt>
            <trkpt lon="100.076501" lat="15.521128">
                <ele>19.363770</ele>
                <time>2005-10-30T05:03:12Z</time>
            </trkpt>
            <trkpt lon="100.076501" lat="15.520957">
                <ele>17.921753</ele>
                <time>2005-10-30T05:03:27Z</time>
            </trkpt>
            <trkpt lon="100.076501" lat="15.520656">
                <ele>17.921753</ele>
                <time>2005-10-30T05:03:41Z</time>
            </trkpt>
            <trkpt lon="100.076544" lat="15.520184">
                <ele>17.921753</ele>
                <time>2005-10-30T05:03:57Z</time>
            </trkpt>
            <trkpt lon="100.076566" lat="15.519669">
                <ele>18.402344</ele>
                <time>2005-10-30T05:04:13Z</time>
            </trkpt>
            <trkpt lon="100.076587" lat="15.519090">
                <ele>18.402344</ele>
                <time>2005-10-30T05:04:30Z</time>
            </trkpt>
            <trkpt lon="100.076609" lat="15.518596">
                <ele>18.883057</ele>
                <time>2005-10-30T05:04:45Z</time>
            </trkpt>
            <trkpt lon="100.076630" lat="15.517824">
                <ele>19.363770</ele>
                <time>2005-10-30T05:05:05Z</time>
            </trkpt>
            <trkpt lon="100.076652" lat="15.517266">
                <ele>18.402344</ele>
                <time>2005-10-30T05:05:21Z</time>
            </trkpt>
            <trkpt lon="100.076630" lat="15.517137">
                <ele>18.883057</ele>
                <time>2005-10-30T05:05:26Z</time>
            </trkpt>
            <trkpt lon="100.076137" lat="15.517180">
                <ele>17.921753</ele>
                <time>2005-10-30T05:05:40Z</time>
            </trkpt>
            <trkpt lon="100.075214" lat="15.517223">
                <ele>17.441162</ele>
                <time>2005-10-30T05:06:00Z</time>
            </trkpt>
            <trkpt lon="100.074892" lat="15.517223">
                <ele>17.441162</ele>
                <time>2005-10-30T05:06:06Z</time>
            </trkpt>
            <trkpt lon="100.074313" lat="15.517159">
                <ele>17.441162</ele>
                <time>2005-10-30T05:06:18Z</time>
            </trkpt>
            <trkpt lon="100.074291" lat="15.517073">
                <ele>17.441162</ele>
                <time>2005-10-30T05:06:22Z</time>
            </trkpt>
            <trkpt lon="100.074334" lat="15.517030">
                <ele>16.960449</ele>
                <time>2005-10-30T05:06:24Z</time>
            </trkpt>
            <trkpt lon="100.074270" lat="15.516579">
                <ele>16.960449</ele>
                <time>2005-10-30T05:06:34Z</time>
            </trkpt>
            <trkpt lon="100.074120" lat="15.515893">
                <ele>16.960449</ele>
                <time>2005-10-30T05:06:51Z</time>
            </trkpt>
            <trkpt lon="100.074034" lat="15.515528">
                <ele>16.960449</ele>
                <time>2005-10-30T05:07:09Z</time>
            </trkpt>
            <trkpt lon="100.073948" lat="15.515099">
                <ele>16.960449</ele>
                <time>2005-10-30T05:07:23Z</time>
            </trkpt>
            <trkpt lon="100.073819" lat="15.514412">
                <ele>16.960449</ele>
                <time>2005-10-30T05:07:42Z</time>
            </trkpt>
            <trkpt lon="100.073712" lat="15.513961">
                <ele>16.960449</ele>
                <time>2005-10-30T05:07:58Z</time>
            </trkpt>
            <trkpt lon="100.073690" lat="15.513768">
                <ele>16.479736</ele>
                <time>2005-10-30T05:08:13Z</time>
            </trkpt>
            <trkpt lon="100.073690" lat="15.513768">
                <ele>15.999023</ele>
                <time>2005-10-30T05:08:15Z</time>
            </trkpt>
            <trkpt lon="100.073669" lat="15.513639">
                <ele>16.479736</ele>
                <time>2005-10-30T05:08:30Z</time>
            </trkpt>
            <trkpt lon="100.073626" lat="15.513511">
                <ele>16.960449</ele>
                <time>2005-10-30T05:08:43Z</time>
            </trkpt>
            <trkpt lon="100.073605" lat="15.513339">
                <ele>16.960449</ele>
                <time>2005-10-30T05:09:01Z</time>
            </trkpt>
            <trkpt lon="100.073583" lat="15.513339">
                <ele>16.960449</ele>
                <time>2005-10-30T05:09:15Z</time>
            </trkpt>
            <trkpt lon="100.073583" lat="15.513296">
                <ele>16.479736</ele>
                <time>2005-10-30T05:09:39Z</time>
            </trkpt>
            <trkpt lon="100.073562" lat="15.513167">
                <ele>16.479736</ele>
                <time>2005-10-30T05:09:54Z</time>
            </trkpt>
            <trkpt lon="100.073497" lat="15.512910">
                <ele>16.479736</ele>
                <time>2005-10-30T05:10:17Z</time>
            </trkpt>
            <trkpt lon="100.073454" lat="15.512674">
                <ele>16.479736</ele>
                <time>2005-10-30T05:10:37Z</time>
            </trkpt>
            <trkpt lon="100.073369" lat="15.512373">
                <ele>16.960449</ele>
                <time>2005-10-30T05:10:59Z</time>
            </trkpt>
            <trkpt lon="100.073326" lat="15.512159">
                <ele>16.960449</ele>
                <time>2005-10-30T05:11:18Z</time>
            </trkpt>
            <trkpt lon="100.073218" lat="15.511730">
                <ele>16.960449</ele>
                <time>2005-10-30T05:11:32Z</time>
            </trkpt>
            <trkpt lon="100.073197" lat="15.511537">
                <ele>17.441162</ele>
                <time>2005-10-30T05:11:40Z</time>
            </trkpt>
            <trkpt lon="100.073240" lat="15.511580">
                <ele>17.441162</ele>
                <time>2005-10-30T05:11:45Z</time>
            </trkpt>
            <trkpt lon="100.073326" lat="15.511601">
                <ele>16.960449</ele>
                <time>2005-10-30T05:11:49Z</time>
            </trkpt>
            <trkpt lon="100.073884" lat="15.511708">
                <ele>16.960449</ele>
                <time>2005-10-30T05:12:05Z</time>
            </trkpt>
            <trkpt lon="100.074248" lat="15.511816">
                <ele>16.960449</ele>
                <time>2005-10-30T05:12:14Z</time>
            </trkpt>
            <trkpt lon="100.075042" lat="15.511944">
                <ele>16.960449</ele>
                <time>2005-10-30T05:12:31Z</time>
            </trkpt>
            <trkpt lon="100.075686" lat="15.512073">
                <ele>16.960449</ele>
                <time>2005-10-30T05:12:45Z</time>
            </trkpt>
            <trkpt lon="100.076373" lat="15.512180">
                <ele>17.441162</ele>
                <time>2005-10-30T05:13:01Z</time>
            </trkpt>
            <trkpt lon="100.077252" lat="15.512309">
                <ele>17.921753</ele>
                <time>2005-10-30T05:13:19Z</time>
            </trkpt>
            <trkpt lon="100.078175" lat="15.512438">
                <ele>17.921753</ele>
                <time>2005-10-30T05:13:38Z</time>
            </trkpt>
            <trkpt lon="100.079141" lat="15.512545">
                <ele>17.441162</ele>
                <time>2005-10-30T05:13:57Z</time>
            </trkpt>
            <trkpt lon="100.079463" lat="15.512588">
                <ele>17.921753</ele>
                <time>2005-10-30T05:14:03Z</time>
            </trkpt>
            <trkpt lon="100.080578" lat="15.512738">
                <ele>17.921753</ele>
                <time>2005-10-30T05:14:25Z</time>
            </trkpt>
            <trkpt lon="100.081501" lat="15.512867">
                <ele>17.921753</ele>
                <time>2005-10-30T05:14:43Z</time>
            </trkpt>
            <trkpt lon="100.082531" lat="15.512996">
                <ele>18.402344</ele>
                <time>2005-10-30T05:15:03Z</time>
            </trkpt>
            <trkpt lon="100.083711" lat="15.513167">
                <ele>18.402344</ele>
                <time>2005-10-30T05:15:27Z</time>
            </trkpt>
            <trkpt lon="100.084591" lat="15.513275">
                <ele>18.402344</ele>
                <time>2005-10-30T05:15:45Z</time>
            </trkpt>
            <trkpt lon="100.084698" lat="15.513296">
                <ele>18.402344</ele>
                <time>2005-10-30T05:15:47Z</time>
            </trkpt>
            <trkpt lon="100.085599" lat="15.513403">
                <ele>18.883057</ele>
                <time>2005-10-30T05:16:06Z</time>
            </trkpt>
            <trkpt lon="100.086393" lat="15.513511">
                <ele>19.363770</ele>
                <time>2005-10-30T05:16:24Z</time>
            </trkpt>
            <trkpt lon="100.086479" lat="15.513511">
                <ele>18.883057</ele>
                <time>2005-10-30T05:16:26Z</time>
            </trkpt>
            <trkpt lon="100.086522" lat="15.513318">
                <ele>19.363770</ele>
                <time>2005-10-30T05:16:32Z</time>
            </trkpt>
            <trkpt lon="100.086436" lat="15.513082">
                <ele>20.324951</ele>
                <time>2005-10-30T05:16:38Z</time>
            </trkpt>
            <trkpt lon="100.086329" lat="15.512288">
                <ele>19.844360</ele>
                <time>2005-10-30T05:16:56Z</time>
            </trkpt>
            <trkpt lon="100.086114" lat="15.511258">
                <ele>19.363770</ele>
                <time>2005-10-30T05:17:17Z</time>
            </trkpt>
            <trkpt lon="100.085771" lat="15.510485">
                <ele>18.883057</ele>
                <time>2005-10-30T05:17:33Z</time>
            </trkpt>
            <trkpt lon="100.085514" lat="15.509841">
                <ele>18.402344</ele>
                <time>2005-10-30T05:17:46Z</time>
            </trkpt>
            <trkpt lon="100.085363" lat="15.508962">
                <ele>15.999023</ele>
                <time>2005-10-30T05:18:02Z</time>
            </trkpt>
            <trkpt lon="100.085320" lat="15.508811">
                <ele>15.999023</ele>
                <time>2005-10-30T05:18:05Z</time>
            </trkpt>
            <trkpt lon="100.085149" lat="15.508575">
                <ele>16.479736</ele>
                <time>2005-10-30T05:18:10Z</time>
            </trkpt>
            <trkpt lon="100.084934" lat="15.508382">
                <ele>16.479736</ele>
                <time>2005-10-30T05:18:15Z</time>
            </trkpt>
            <trkpt lon="100.084333" lat="15.507567">
                <ele>16.960449</ele>
                <time>2005-10-30T05:18:32Z</time>
            </trkpt>
            <trkpt lon="100.083797" lat="15.506794">
                <ele>17.921753</ele>
                <time>2005-10-30T05:18:50Z</time>
            </trkpt>
            <trkpt lon="100.083218" lat="15.505872">
                <ele>18.402344</ele>
                <time>2005-10-30T05:19:09Z</time>
            </trkpt>
            <trkpt lon="100.082982" lat="15.505099">
                <ele>18.402344</ele>
                <time>2005-10-30T05:19:25Z</time>
            </trkpt>
            <trkpt lon="100.082896" lat="15.504112">
                <ele>18.402344</ele>
                <time>2005-10-30T05:19:44Z</time>
            </trkpt>
            <trkpt lon="100.082703" lat="15.503490">
                <ele>18.402344</ele>
                <time>2005-10-30T05:19:56Z</time>
            </trkpt>
            <trkpt lon="100.082724" lat="15.502653">
                <ele>19.844360</ele>
                <time>2005-10-30T05:20:13Z</time>
            </trkpt>
            <trkpt lon="100.082810" lat="15.502267">
                <ele>20.805664</ele>
                <time>2005-10-30T05:20:22Z</time>
            </trkpt>
            <trkpt lon="100.082831" lat="15.501666">
                <ele>20.324951</ele>
                <time>2005-10-30T05:20:35Z</time>
            </trkpt>
            <trkpt lon="100.082788" lat="15.501430">
                <ele>20.324951</ele>
                <time>2005-10-30T05:20:40Z</time>
            </trkpt>
            <trkpt lon="100.082681" lat="15.500786">
                <ele>20.805664</ele>
                <time>2005-10-30T05:20:58Z</time>
            </trkpt>
            <trkpt lon="100.082510" lat="15.500314">
                <ele>19.363770</ele>
                <time>2005-10-30T05:21:11Z</time>
            </trkpt>
            <trkpt lon="100.082102" lat="15.499713">
                <ele>18.883057</ele>
                <time>2005-10-30T05:21:28Z</time>
            </trkpt>
            <trkpt lon="100.081587" lat="15.499091">
                <ele>18.883057</ele>
                <time>2005-10-30T05:21:46Z</time>
            </trkpt>
            <trkpt lon="100.081329" lat="15.498791">
                <ele>18.402344</ele>
                <time>2005-10-30T05:22:00Z</time>
            </trkpt>
            <trkpt lon="100.081308" lat="15.498748">
                <ele>16.960449</ele>
                <time>2005-10-30T05:22:27Z</time>
            </trkpt>
            <trkpt lon="100.081608" lat="15.498533">
                <ele>16.960449</ele>
                <time>2005-10-30T05:22:40Z</time>
            </trkpt>
            <trkpt lon="100.082016" lat="15.498126">
                <ele>16.479736</ele>
                <time>2005-10-30T05:22:54Z</time>
            </trkpt>
            <trkpt lon="100.082703" lat="15.497782">
                <ele>16.479736</ele>
                <time>2005-10-30T05:23:13Z</time>
            </trkpt>
            <trkpt lon="100.082746" lat="15.497739">
                <ele>16.479736</ele>
                <time>2005-10-30T05:23:15Z</time>
            </trkpt>
            <trkpt lon="100.082703" lat="15.497568">
                <ele>16.479736</ele>
                <time>2005-10-30T05:23:20Z</time>
            </trkpt>
            <trkpt lon="100.082681" lat="15.497289">
                <ele>16.479736</ele>
                <time>2005-10-30T05:23:27Z</time>
            </trkpt>
            <trkpt lon="100.082896" lat="15.497139">
                <ele>16.479736</ele>
                <time>2005-10-30T05:23:35Z</time>
            </trkpt>
            <trkpt lon="100.082960" lat="15.497181">
                <ele>15.999023</ele>
                <time>2005-10-30T05:23:39Z</time>
            </trkpt>
            <trkpt lon="100.082982" lat="15.497332">
                <ele>15.999023</ele>
                <time>2005-10-30T05:23:45Z</time>
            </trkpt>
            <trkpt lon="100.083325" lat="15.497289">
                <ele>16.960449</ele>
                <time>2005-10-30T05:23:54Z</time>
            </trkpt>
            <trkpt lon="100.083389" lat="15.497074">
                <ele>16.960449</ele>
                <time>2005-10-30T05:24:00Z</time>
            </trkpt>
            <trkpt lon="100.083389" lat="15.497010">
                <ele>16.960449</ele>
                <time>2005-10-30T05:24:02Z</time>
            </trkpt>
            <trkpt lon="100.083025" lat="15.496538">
                <ele>15.999023</ele>
                <time>2005-10-30T05:24:15Z</time>
            </trkpt>
            <trkpt lon="100.082939" lat="15.496345">
                <ele>16.479736</ele>
                <time>2005-10-30T05:24:20Z</time>
            </trkpt>
            <trkpt lon="100.082638" lat="15.495851">
                <ele>16.960449</ele>
                <time>2005-10-30T05:24:36Z</time>
            </trkpt>
            <trkpt lon="100.082552" lat="15.495787">
                <ele>16.960449</ele>
                <time>2005-10-30T05:24:39Z</time>
            </trkpt>
            <trkpt lon="100.082488" lat="15.495551">
                <ele>17.441162</ele>
                <time>2005-10-30T05:24:47Z</time>
            </trkpt>
            <trkpt lon="100.082595" lat="15.495443">
                <ele>16.479736</ele>
                <time>2005-10-30T05:24:53Z</time>
            </trkpt>
            <trkpt lon="100.083132" lat="15.495379">
                <ele>16.960449</ele>
                <time>2005-10-30T05:25:07Z</time>
            </trkpt>
            <trkpt lon="100.083153" lat="15.495229">
                <ele>16.960449</ele>
                <time>2005-10-30T05:25:14Z</time>
            </trkpt>
            <trkpt lon="100.083132" lat="15.494864">
                <ele>16.960449</ele>
                <time>2005-10-30T05:25:29Z</time>
            </trkpt>
            <trkpt lon="100.083175" lat="15.494735">
                <ele>17.441162</ele>
                <time>2005-10-30T05:25:33Z</time>
            </trkpt>
            <trkpt lon="100.083346" lat="15.494671">
                <ele>18.402344</ele>
                <time>2005-10-30T05:25:39Z</time>
            </trkpt>
            <trkpt lon="100.083454" lat="15.494070">
                <ele>17.441162</ele>
                <time>2005-10-30T05:25:56Z</time>
            </trkpt>
            <trkpt lon="100.083561" lat="15.493126">
                <ele>15.037720</ele>
                <time>2005-10-30T05:26:17Z</time>
            </trkpt>
            <trkpt lon="100.083561" lat="15.492997">
                <ele>15.037720</ele>
                <time>2005-10-30T05:26:20Z</time>
            </trkpt>
            <trkpt lon="100.083389" lat="15.492890">
                <ele>15.037720</ele>
                <time>2005-10-30T05:26:27Z</time>
            </trkpt>
            <trkpt lon="100.082767" lat="15.492783">
                <ele>14.557007</ele>
                <time>2005-10-30T05:26:43Z</time>
            </trkpt>
            <trkpt lon="100.082467" lat="15.492697">
                <ele>14.557007</ele>
                <time>2005-10-30T05:26:51Z</time>
            </trkpt>
            <trkpt lon="100.082467" lat="15.492160">
                <ele>14.557007</ele>
                <time>2005-10-30T05:27:05Z</time>
            </trkpt>
            <trkpt lon="100.082467" lat="15.491645">
                <ele>15.037720</ele>
                <time>2005-10-30T05:27:21Z</time>
            </trkpt>
            <trkpt lon="100.082445" lat="15.491152">
                <ele>16.960449</ele>
                <time>2005-10-30T05:27:36Z</time>
            </trkpt>
            <trkpt lon="100.082359" lat="15.490937">
                <ele>19.844360</ele>
                <time>2005-10-30T05:27:49Z</time>
            </trkpt>
            <trkpt lon="100.082316" lat="15.490465">
                <ele>16.479736</ele>
                <time>2005-10-30T05:28:03Z</time>
            </trkpt>
            <trkpt lon="100.082316" lat="15.489585">
                <ele>17.921753</ele>
                <time>2005-10-30T05:28:26Z</time>
            </trkpt>
            <trkpt lon="100.082316" lat="15.489478">
                <ele>17.441162</ele>
                <time>2005-10-30T05:28:28Z</time>
            </trkpt>
            <trkpt lon="100.082209" lat="15.489435">
                <ele>17.441162</ele>
                <time>2005-10-30T05:28:32Z</time>
            </trkpt>
            <trkpt lon="100.081587" lat="15.489564">
                <ele>17.441162</ele>
                <time>2005-10-30T05:28:46Z</time>
            </trkpt>
            <trkpt lon="100.081501" lat="15.489607">
                <ele>16.960449</ele>
                <time>2005-10-30T05:28:48Z</time>
            </trkpt>
            <trkpt lon="100.081308" lat="15.489585">
                <ele>16.479736</ele>
                <time>2005-10-30T05:28:52Z</time>
            </trkpt>
            <trkpt lon="100.081265" lat="15.489585">
                <ele>15.999023</ele>
                <time>2005-10-30T05:28:58Z</time>
            </trkpt>
            <trkpt lon="100.081201" lat="15.489693">
                <ele>16.479736</ele>
                <time>2005-10-30T05:29:08Z</time>
            </trkpt>
            <trkpt lon="100.080900" lat="15.489950">
                <ele>16.960449</ele>
                <time>2005-10-30T05:29:19Z</time>
            </trkpt>
            <trkpt lon="100.080364" lat="15.490594">
                <ele>16.479736</ele>
                <time>2005-10-30T05:29:38Z</time>
            </trkpt>
            <trkpt lon="100.080321" lat="15.490615">
                <ele>16.479736</ele>
                <time>2005-10-30T05:29:39Z</time>
            </trkpt>
            <trkpt lon="100.079741" lat="15.490723">
                <ele>15.999023</ele>
                <time>2005-10-30T05:29:52Z</time>
            </trkpt>
            <trkpt lon="100.079656" lat="15.490723">
                <ele>15.999023</ele>
                <time>2005-10-30T05:29:54Z</time>
            </trkpt>
            <trkpt lon="100.078990" lat="15.490508">
                <ele>16.479736</ele>
                <time>2005-10-30T05:30:09Z</time>
            </trkpt>
            <trkpt lon="100.078518" lat="15.490336">
                <ele>16.479736</ele>
                <time>2005-10-30T05:30:19Z</time>
            </trkpt>
            <trkpt lon="100.078368" lat="15.490315">
                <ele>16.479736</ele>
                <time>2005-10-30T05:30:22Z</time>
            </trkpt>
            <trkpt lon="100.077510" lat="15.490015">
                <ele>15.999023</ele>
                <time>2005-10-30T05:30:40Z</time>
            </trkpt>
            <trkpt lon="100.076823" lat="15.489779">
                <ele>15.999023</ele>
                <time>2005-10-30T05:30:55Z</time>
            </trkpt>
            <trkpt lon="100.076780" lat="15.489821">
                <ele>16.479736</ele>
                <time>2005-10-30T05:30:59Z</time>
            </trkpt>
            <trkpt lon="100.076673" lat="15.490208">
                <ele>16.479736</ele>
                <time>2005-10-30T05:31:12Z</time>
            </trkpt>
            <trkpt lon="100.076544" lat="15.490851">
                <ele>15.999023</ele>
                <time>2005-10-30T05:31:28Z</time>
            </trkpt>
            <trkpt lon="100.076480" lat="15.491731">
                <ele>15.037720</ele>
                <time>2005-10-30T05:31:45Z</time>
            </trkpt>
            <trkpt lon="100.076458" lat="15.492418">
                <ele>14.557007</ele>
                <time>2005-10-30T05:31:59Z</time>
            </trkpt>
            <trkpt lon="100.076458" lat="15.492482">
                <ele>14.076416</ele>
                <time>2005-10-30T05:32:05Z</time>
            </trkpt>
            <trkpt lon="100.076480" lat="15.492525">
                <ele>14.076416</ele>
                <time>2005-10-30T05:32:08Z</time>
            </trkpt>
            <trkpt lon="100.076458" lat="15.492547">
                <ele>13.115112</ele>
                <time>2005-10-30T05:32:23Z</time>
            </trkpt>
            <trkpt lon="100.076480" lat="15.492525">
                <ele>15.518433</ele>
                <time>2005-10-30T05:38:26Z</time>
            </trkpt>
            <trkpt lon="100.076437" lat="15.492439">
                <ele>16.479736</ele>
                <time>2005-10-30T05:38:39Z</time>
            </trkpt>
            <trkpt lon="100.076458" lat="15.492203">
                <ele>16.479736</ele>
                <time>2005-10-30T05:39:04Z</time>
            </trkpt>
            <trkpt lon="100.076480" lat="15.491710">
                <ele>16.479736</ele>
                <time>2005-10-30T05:39:17Z</time>
            </trkpt>
            <trkpt lon="100.076523" lat="15.491087">
                <ele>17.441162</ele>
                <time>2005-10-30T05:39:34Z</time>
            </trkpt>
            <trkpt lon="100.076523" lat="15.491087">
                <ele>17.441162</ele>
                <time>2005-10-30T05:39:51Z</time>
            </trkpt>
            <trkpt lon="100.076544" lat="15.490959">
                <ele>17.441162</ele>
                <time>2005-10-30T05:40:06Z</time>
            </trkpt>
            <trkpt lon="100.076587" lat="15.490401">
                <ele>17.921753</ele>
                <time>2005-10-30T05:40:23Z</time>
            </trkpt>
            <trkpt lon="100.076673" lat="15.490143">
                <ele>17.921753</ele>
                <time>2005-10-30T05:40:30Z</time>
            </trkpt>
            <trkpt lon="100.076823" lat="15.489693">
                <ele>16.479736</ele>
                <time>2005-10-30T05:40:45Z</time>
            </trkpt>
            <trkpt lon="100.076888" lat="15.489500">
                <ele>16.479736</ele>
                <time>2005-10-30T05:40:58Z</time>
            </trkpt>
            <trkpt lon="100.077102" lat="15.488899">
                <ele>16.479736</ele>
                <time>2005-10-30T05:41:13Z</time>
            </trkpt>
            <trkpt lon="100.077403" lat="15.487976">
                <ele>16.479736</ele>
                <time>2005-10-30T05:41:32Z</time>
            </trkpt>
            <trkpt lon="100.077789" lat="15.486925">
                <ele>15.999023</ele>
                <time>2005-10-30T05:41:53Z</time>
            </trkpt>
            <trkpt lon="100.077939" lat="15.486345">
                <ele>16.479736</ele>
                <time>2005-10-30T05:42:04Z</time>
            </trkpt>
            <trkpt lon="100.078304" lat="15.485358">
                <ele>16.479736</ele>
                <time>2005-10-30T05:42:24Z</time>
            </trkpt>
            <trkpt lon="100.078626" lat="15.484457">
                <ele>15.518433</ele>
                <time>2005-10-30T05:42:44Z</time>
            </trkpt>
            <trkpt lon="100.078926" lat="15.483513">
                <ele>15.999023</ele>
                <time>2005-10-30T05:43:04Z</time>
            </trkpt>
            <trkpt lon="100.078948" lat="15.483470">
                <ele>15.518433</ele>
                <time>2005-10-30T05:43:05Z</time>
            </trkpt>
            <trkpt lon="100.079012" lat="15.483170">
                <ele>15.999023</ele>
                <time>2005-10-30T05:43:11Z</time>
            </trkpt>
            <trkpt lon="100.079377" lat="15.482247">
                <ele>15.037720</ele>
                <time>2005-10-30T05:43:31Z</time>
            </trkpt>
            <trkpt lon="100.079441" lat="15.482118">
                <ele>15.037720</ele>
                <time>2005-10-30T05:43:34Z</time>
            </trkpt>
            <trkpt lon="100.079656" lat="15.481453">
                <ele>14.076416</ele>
                <time>2005-10-30T05:43:49Z</time>
            </trkpt>
            <trkpt lon="100.079720" lat="15.481260">
                <ele>14.557007</ele>
                <time>2005-10-30T05:43:54Z</time>
            </trkpt>
            <trkpt lon="100.079935" lat="15.480680">
                <ele>15.518433</ele>
                <time>2005-10-30T05:44:09Z</time>
            </trkpt>
            <trkpt lon="100.080085" lat="15.480444">
                <ele>15.037720</ele>
                <time>2005-10-30T05:44:15Z</time>
            </trkpt>
            <trkpt lon="100.080278" lat="15.480294">
                <ele>15.037720</ele>
                <time>2005-10-30T05:44:20Z</time>
            </trkpt>
            <trkpt lon="100.080922" lat="15.479844">
                <ele>14.076416</ele>
                <time>2005-10-30T05:44:35Z</time>
            </trkpt>
            <trkpt lon="100.081372" lat="15.479500">
                <ele>13.595825</ele>
                <time>2005-10-30T05:44:46Z</time>
            </trkpt>
            <trkpt lon="100.082273" lat="15.478964">
                <ele>13.115112</ele>
                <time>2005-10-30T05:45:07Z</time>
            </trkpt>
            <trkpt lon="100.082982" lat="15.478556">
                <ele>13.595825</ele>
                <time>2005-10-30T05:45:24Z</time>
            </trkpt>
            <trkpt lon="100.084012" lat="15.478041">
                <ele>15.037720</ele>
                <time>2005-10-30T05:45:47Z</time>
            </trkpt>
            <trkpt lon="100.084698" lat="15.477719">
                <ele>14.076416</ele>
                <time>2005-10-30T05:46:02Z</time>
            </trkpt>
            <trkpt lon="100.085449" lat="15.477633">
                <ele>15.518433</ele>
                <time>2005-10-30T05:46:16Z</time>
            </trkpt>
            <trkpt lon="100.086393" lat="15.477376">
                <ele>16.479736</ele>
                <time>2005-10-30T05:46:36Z</time>
            </trkpt>
            <trkpt lon="100.086844" lat="15.476882">
                <ele>16.960449</ele>
                <time>2005-10-30T05:46:50Z</time>
            </trkpt>
            <trkpt lon="100.087144" lat="15.476389">
                <ele>18.402344</ele>
                <time>2005-10-30T05:47:06Z</time>
            </trkpt>
            <trkpt lon="100.087316" lat="15.476196">
                <ele>18.402344</ele>
                <time>2005-10-30T05:47:12Z</time>
            </trkpt>
            <trkpt lon="100.088217" lat="15.475574">
                <ele>18.402344</ele>
                <time>2005-10-30T05:47:36Z</time>
            </trkpt>
            <trkpt lon="100.088646" lat="15.475316">
                <ele>18.402344</ele>
                <time>2005-10-30T05:47:46Z</time>
            </trkpt>
            <trkpt lon="100.089719" lat="15.475144">
                <ele>17.921753</ele>
                <time>2005-10-30T05:48:07Z</time>
            </trkpt>
            <trkpt lon="100.090835" lat="15.474930">
                <ele>18.402344</ele>
                <time>2005-10-30T05:48:29Z</time>
            </trkpt>
            <trkpt lon="100.091972" lat="15.474672">
                <ele>17.921753</ele>
                <time>2005-10-30T05:48:51Z</time>
            </trkpt>
            <trkpt lon="100.092702" lat="15.474758">
                <ele>16.479736</ele>
                <time>2005-10-30T05:49:05Z</time>
            </trkpt>
            <trkpt lon="100.093431" lat="15.474737">
                <ele>16.960449</ele>
                <time>2005-10-30T05:49:18Z</time>
            </trkpt>
            <trkpt lon="100.093603" lat="15.474672">
                <ele>16.479736</ele>
                <time>2005-10-30T05:49:21Z</time>
            </trkpt>
            <trkpt lon="100.093818" lat="15.474608">
                <ele>15.999023</ele>
                <time>2005-10-30T05:49:25Z</time>
            </trkpt>
            <trkpt lon="100.094826" lat="15.474350">
                <ele>15.999023</ele>
                <time>2005-10-30T05:49:44Z</time>
            </trkpt>
            <trkpt lon="100.094934" lat="15.474350">
                <ele>15.999023</ele>
                <time>2005-10-30T05:49:46Z</time>
            </trkpt>
            <trkpt lon="100.095534" lat="15.474308">
                <ele>15.518433</ele>
                <time>2005-10-30T05:49:57Z</time>
            </trkpt>
            <trkpt lon="100.096607" lat="15.474136">
                <ele>16.479736</ele>
                <time>2005-10-30T05:50:17Z</time>
            </trkpt>
            <trkpt lon="100.096779" lat="15.474114">
                <ele>15.999023</ele>
                <time>2005-10-30T05:50:20Z</time>
            </trkpt>
            <trkpt lon="100.097208" lat="15.473986">
                <ele>16.479736</ele>
                <time>2005-10-30T05:50:28Z</time>
            </trkpt>
            <trkpt lon="100.097401" lat="15.473943">
                <ele>16.479736</ele>
                <time>2005-10-30T05:50:32Z</time>
            </trkpt>
            <trkpt lon="100.098324" lat="15.473750">
                <ele>16.479736</ele>
                <time>2005-10-30T05:50:50Z</time>
            </trkpt>
            <trkpt lon="100.099225" lat="15.473578">
                <ele>15.518433</ele>
                <time>2005-10-30T05:51:09Z</time>
            </trkpt>
            <trkpt lon="100.099289" lat="15.473557">
                <ele>15.518433</ele>
                <time>2005-10-30T05:51:10Z</time>
            </trkpt>
            <trkpt lon="100.099440" lat="15.473535">
                <ele>15.518433</ele>
                <time>2005-10-30T05:51:14Z</time>
            </trkpt>
            <trkpt lon="100.100534" lat="15.473106">
                <ele>16.479736</ele>
                <time>2005-10-30T05:51:40Z</time>
            </trkpt>
            <trkpt lon="100.101542" lat="15.472784">
                <ele>15.037720</ele>
                <time>2005-10-30T05:52:01Z</time>
            </trkpt>
            <trkpt lon="100.102487" lat="15.472548">
                <ele>15.999023</ele>
                <time>2005-10-30T05:52:25Z</time>
            </trkpt>
            <trkpt lon="100.103581" lat="15.472291">
                <ele>17.441162</ele>
                <time>2005-10-30T05:52:52Z</time>
            </trkpt>
            <trkpt lon="100.104182" lat="15.472033">
                <ele>17.921753</ele>
                <time>2005-10-30T05:53:14Z</time>
            </trkpt>
            <trkpt lon="100.104289" lat="15.471947">
                <ele>27.534912</ele>
                <time>2005-10-30T05:53:30Z</time>
            </trkpt>
            <trkpt lon="100.104246" lat="15.471969">
                <ele>16.960449</ele>
                <time>2005-10-30T05:54:11Z</time>
            </trkpt>
            <trkpt lon="100.104246" lat="15.471969">
                <ele>16.479736</ele>
                <time>2005-10-30T05:54:12Z</time>
            </trkpt>
            <trkpt lon="100.104117" lat="15.471969">
                <ele>16.479736</ele>
                <time>2005-10-30T05:54:34Z</time>
            </trkpt>
            <trkpt lon="100.104203" lat="15.471969">
                <ele>20.805664</ele>
                <time>2005-10-30T05:55:21Z</time>
            </trkpt>
            <trkpt lon="100.104439" lat="15.471668">
                <ele>20.805664</ele>
                <time>2005-10-30T05:55:37Z</time>
            </trkpt>
            <trkpt lon="100.105019" lat="15.471196">
                <ele>20.324951</ele>
                <time>2005-10-30T05:55:58Z</time>
            </trkpt>
            <trkpt lon="100.105684" lat="15.471046">
                <ele>20.805664</ele>
                <time>2005-10-30T05:56:14Z</time>
            </trkpt>
            <trkpt lon="100.106499" lat="15.470982">
                <ele>19.363770</ele>
                <time>2005-10-30T05:56:34Z</time>
            </trkpt>
            <trkpt lon="100.106757" lat="15.470960">
                <ele>19.363770</ele>
                <time>2005-10-30T05:56:44Z</time>
            </trkpt>
            <trkpt lon="100.106864" lat="15.471046">
                <ele>19.363770</ele>
                <time>2005-10-30T05:56:50Z</time>
            </trkpt>
            <trkpt lon="100.106928" lat="15.471175">
                <ele>18.883057</ele>
                <time>2005-10-30T05:57:02Z</time>
            </trkpt>
            <trkpt lon="100.106757" lat="15.470638">
                <ele>17.441162</ele>
                <time>2005-10-30T05:57:19Z</time>
            </trkpt>
            <trkpt lon="100.106692" lat="15.470338">
                <ele>18.402344</ele>
                <time>2005-10-30T05:57:26Z</time>
            </trkpt>
            <trkpt lon="100.106435" lat="15.469480">
                <ele>18.883057</ele>
                <time>2005-10-30T05:57:45Z</time>
            </trkpt>
            <trkpt lon="100.106242" lat="15.469029">
                <ele>18.883057</ele>
                <time>2005-10-30T05:57:55Z</time>
            </trkpt>
            <trkpt lon="100.106091" lat="15.468364">
                <ele>19.363770</ele>
                <time>2005-10-30T05:58:10Z</time>
            </trkpt>
            <trkpt lon="100.105813" lat="15.467205">
                <ele>19.844360</ele>
                <time>2005-10-30T05:58:32Z</time>
            </trkpt>
            <trkpt lon="100.105534" lat="15.465703">
                <ele>20.805664</ele>
                <time>2005-10-30T05:58:59Z</time>
            </trkpt>
            <trkpt lon="100.105340" lat="15.464351">
                <ele>18.883057</ele>
                <time>2005-10-30T05:59:23Z</time>
            </trkpt>
            <trkpt lon="100.105190" lat="15.463171">
                <ele>19.363770</ele>
                <time>2005-10-30T05:59:44Z</time>
            </trkpt>
            <trkpt lon="100.104954" lat="15.461884">
                <ele>18.883057</ele>
                <time>2005-10-30T06:00:07Z</time>
            </trkpt>
            <trkpt lon="100.104933" lat="15.461369">
                <ele>19.844360</ele>
                <time>2005-10-30T06:00:17Z</time>
            </trkpt>
            <trkpt lon="100.104783" lat="15.461261">
                <ele>19.844360</ele>
                <time>2005-10-30T06:00:21Z</time>
            </trkpt>
            <trkpt lon="100.104074" lat="15.461454">
                <ele>18.883057</ele>
                <time>2005-10-30T06:00:37Z</time>
            </trkpt>
            <trkpt lon="100.103903" lat="15.461540">
                <ele>18.883057</ele>
                <time>2005-10-30T06:00:41Z</time>
            </trkpt>
            <trkpt lon="100.103624" lat="15.461755">
                <ele>18.883057</ele>
                <time>2005-10-30T06:00:48Z</time>
            </trkpt>
            <trkpt lon="100.103452" lat="15.461733">
                <ele>18.883057</ele>
                <time>2005-10-30T06:00:52Z</time>
            </trkpt>
            <trkpt lon="100.103238" lat="15.461347">
                <ele>19.363770</ele>
                <time>2005-10-30T06:01:01Z</time>
            </trkpt>
            <trkpt lon="100.102916" lat="15.461283">
                <ele>19.363770</ele>
                <time>2005-10-30T06:01:08Z</time>
            </trkpt>
            <trkpt lon="100.102658" lat="15.461304">
                <ele>18.402344</ele>
                <time>2005-10-30T06:01:13Z</time>
            </trkpt>
            <trkpt lon="100.102551" lat="15.461283">
                <ele>18.402344</ele>
                <time>2005-10-30T06:01:15Z</time>
            </trkpt>
            <trkpt lon="100.102358" lat="15.461197">
                <ele>17.921753</ele>
                <time>2005-10-30T06:01:19Z</time>
            </trkpt>
            <trkpt lon="100.102186" lat="15.460360">
                <ele>18.402344</ele>
                <time>2005-10-30T06:01:34Z</time>
            </trkpt>
            <trkpt lon="100.101929" lat="15.460145">
                <ele>18.883057</ele>
                <time>2005-10-30T06:01:41Z</time>
            </trkpt>
            <trkpt lon="100.101070" lat="15.460081">
                <ele>20.324951</ele>
                <time>2005-10-30T06:01:59Z</time>
            </trkpt>
            <trkpt lon="100.100276" lat="15.460253">
                <ele>21.766968</ele>
                <time>2005-10-30T06:02:17Z</time>
            </trkpt>
            <trkpt lon="100.100191" lat="15.460296">
                <ele>22.247559</ele>
                <time>2005-10-30T06:02:19Z</time>
            </trkpt>
            <trkpt lon="100.099590" lat="15.461068">
                <ele>25.131714</ele>
                <time>2005-10-30T06:02:39Z</time>
            </trkpt>
            <trkpt lon="100.098968" lat="15.461991">
                <ele>26.573608</ele>
                <time>2005-10-30T06:03:01Z</time>
            </trkpt>
            <trkpt lon="100.098217" lat="15.462849">
                <ele>21.766968</ele>
                <time>2005-10-30T06:03:22Z</time>
            </trkpt>
            <trkpt lon="100.097702" lat="15.463493">
                <ele>20.805664</ele>
                <time>2005-10-30T06:03:37Z</time>
            </trkpt>
            <trkpt lon="100.097508" lat="15.463793">
                <ele>20.805664</ele>
                <time>2005-10-30T06:03:43Z</time>
            </trkpt>
            <trkpt lon="100.096757" lat="15.464609">
                <ele>21.286377</ele>
                <time>2005-10-30T06:04:03Z</time>
            </trkpt>
            <trkpt lon="100.095921" lat="15.465553">
                <ele>20.805664</ele>
                <time>2005-10-30T06:04:27Z</time>
            </trkpt>
            <trkpt lon="100.095513" lat="15.466132">
                <ele>21.766968</ele>
                <time>2005-10-30T06:04:41Z</time>
            </trkpt>
            <trkpt lon="100.094998" lat="15.466905">
                <ele>24.170288</ele>
                <time>2005-10-30T06:05:00Z</time>
            </trkpt>
            <trkpt lon="100.094655" lat="15.467355">
                <ele>22.247559</ele>
                <time>2005-10-30T06:05:16Z</time>
            </trkpt>
            <trkpt lon="100.094504" lat="15.467355">
                <ele>22.247559</ele>
                <time>2005-10-30T06:05:21Z</time>
            </trkpt>
            <trkpt lon="100.094461" lat="15.467377">
                <ele>20.805664</ele>
                <time>2005-10-30T06:05:25Z</time>
            </trkpt>
            <trkpt lon="100.094204" lat="15.467677">
                <ele>20.805664</ele>
                <time>2005-10-30T06:05:39Z</time>
            </trkpt>
            <trkpt lon="100.093603" lat="15.467398">
                <ele>22.728271</ele>
                <time>2005-10-30T06:05:55Z</time>
            </trkpt>
            <trkpt lon="100.092916" lat="15.467033">
                <ele>24.170288</ele>
                <time>2005-10-30T06:06:15Z</time>
            </trkpt>
            <trkpt lon="100.092659" lat="15.466840">
                <ele>24.651001</ele>
                <time>2005-10-30T06:06:24Z</time>
            </trkpt>
            <trkpt lon="100.092659" lat="15.466690">
                <ele>24.651001</ele>
                <time>2005-10-30T06:06:29Z</time>
            </trkpt>
            <trkpt lon="100.092680" lat="15.466626">
                <ele>24.170288</ele>
                <time>2005-10-30T06:06:47Z</time>
            </trkpt>
            <trkpt lon="100.092766" lat="15.466626">
                <ele>28.976929</ele>
                <time>2005-10-30T06:11:35Z</time>
            </trkpt>
        </trkseg>
    </trk>
</gpx>